createdAt,value
2024-05-09T00:00:36.399Z,5.05
2024-05-09T00:03:08.380Z,5.78
2024-05-09T00:08:05.397Z,5.43
2024-05-09T00:10:36.994Z,5.15
2024-05-09T00:13:08.276Z,6.65
2024-05-09T00:15:36.687Z,6.30
2024-05-09T00:18:06.264Z,5.10
2024-05-09T00:20:38.870Z,4.40
2024-05-09T00:23:12.347Z,4.85
2024-05-09T00:25:42.948Z,5.20
2024-05-09T00:28:11.977Z,5.57
2024-05-09T00:30:39.565Z,5.35
2024-05-09T00:33:09.138Z,5.50
2024-05-09T00:35:38.910Z,6.18
2024-05-09T00:38:12.582Z,6.07
2024-05-09T00:40:42.734Z,5.60
2024-05-09T00:43:13.420Z,7.03
2024-05-09T00:45:42.784Z,5.28
2024-05-09T00:48:14.319Z,7.13
2024-05-09T00:50:45.696Z,6.60
2024-05-09T00:53:16.023Z,6.53
2024-05-09T00:55:44.956Z,6.55
2024-05-09T00:58:16.543Z,6.95
2024-05-09T01:00:43.806Z,6.43
2024-05-09T01:03:12.593Z,5.93
2024-05-09T01:05:41.410Z,5.15
2024-05-09T01:08:09.334Z,6.32
2024-05-09T01:10:37.317Z,6.13
2024-05-09T01:13:04.949Z,6.47
2024-05-09T01:15:31.770Z,6.50
2024-05-09T01:18:01.147Z,7.15
2024-05-09T01:20:37.473Z,7.22
2024-05-09T01:23:09.953Z,6.18
2024-05-09T01:25:37.123Z,6.18
2024-05-09T01:28:04.075Z,5.63
2024-05-09T01:30:35.384Z,7.53
2024-05-09T01:33:07.416Z,6.10
2024-05-09T01:35:36.014Z,6.88
2024-05-09T01:38:02.912Z,6.93
2024-05-09T01:40:37.179Z,5.63
2024-05-09T01:43:07.001Z,6.10
2024-05-09T01:45:33.922Z,5.53
2024-05-09T01:48:01.039Z,6.85
2024-05-09T01:50:37.664Z,5.95
2024-05-09T01:53:10.329Z,7.03
2024-05-09T01:55:37.286Z,6.18
2024-05-09T01:58:04.082Z,6.43
2024-05-09T02:00:38.711Z,6.20
2024-05-09T02:03:11.452Z,7.38
2024-05-09T02:05:41.048Z,6.75
2024-05-09T02:08:12.217Z,6.63
2024-05-09T02:10:39.009Z,7.60
2024-05-09T02:13:07.747Z,5.85
2024-05-09T02:15:34.436Z,7.28
2024-05-09T02:18:01.320Z,6.55
2024-05-09T02:20:35.204Z,6.75
2024-05-09T02:23:05.154Z,6.53
2024-05-09T02:25:32.667Z,6.53
2024-05-09T02:27:59.695Z,6.72
2024-05-09T02:30:36.176Z,6.65
2024-05-09T02:33:08.096Z,6.47
2024-05-09T02:35:35.652Z,7.25
2024-05-09T02:38:02.512Z,6.50
2024-05-09T02:40:36.536Z,6.45
2024-05-09T02:43:06.642Z,7.32
2024-05-09T02:45:33.634Z,6.80
2024-05-09T02:48:01.538Z,7.03
2024-05-09T02:50:34.727Z,7.95
2024-05-09T02:53:06.206Z,7.07
2024-05-09T02:55:34.468Z,7.00
2024-05-09T02:58:01.284Z,6.72
2024-05-09T03:00:36.701Z,7.35
2024-05-09T03:03:09.832Z,7.30
2024-05-09T03:05:39.220Z,7.28
2024-05-09T03:08:06.339Z,7.38
2024-05-09T03:10:36.544Z,7.60
2024-05-09T03:13:12.924Z,7.68
2024-05-09T03:15:41.005Z,7.13
2024-05-09T03:18:09.780Z,7.28
2024-05-09T03:20:38.064Z,7.65
2024-05-09T03:23:08.088Z,8.02
2024-05-09T03:25:35.984Z,8.02
2024-05-09T03:28:02.783Z,7.93
2024-05-09T03:30:38.368Z,7.47
2024-05-09T03:33:11.060Z,7.15
2024-05-09T03:35:38.292Z,7.90
2024-05-09T03:38:05.045Z,7.80
2024-05-09T03:40:31.842Z,9.18
2024-05-09T03:42:58.977Z,7.15
2024-05-09T03:45:25.750Z,7.68
2024-05-09T03:47:53.148Z,7.60
2024-05-09T03:50:26.497Z,8.45
2024-05-09T03:53:01.082Z,8.45
2024-05-09T03:55:28.436Z,7.75
2024-05-09T03:57:55.186Z,6.80
2024-05-09T04:00:30.006Z,7.28
2024-05-09T04:03:02.335Z,8.18
2024-05-09T04:05:30.936Z,7.43
2024-05-09T04:07:58.338Z,8.60
2024-05-09T04:10:32.426Z,8.07
2024-05-09T04:13:01.098Z,9.10
2024-05-09T04:15:27.895Z,9.15
2024-05-09T04:17:54.796Z,8.35
2024-05-09T04:20:32.820Z,9.10
2024-05-09T04:23:06.006Z,7.47
2024-05-09T04:25:32.893Z,7.60
2024-05-09T04:27:59.684Z,8.00
2024-05-09T04:30:35.935Z,8.48
2024-05-09T04:33:07.679Z,9.35
2024-05-09T04:35:36.163Z,7.82
2024-05-09T04:38:03.754Z,8.88
2024-05-09T04:40:34.387Z,8.77
2024-05-09T04:43:04.500Z,8.85
2024-05-09T04:45:31.439Z,8.38
2024-05-09T04:47:58.710Z,9.23
2024-05-09T04:50:35.351Z,8.38
2024-05-09T04:53:05.956Z,8.23
2024-05-09T04:55:33.280Z,7.90
2024-05-09T04:58:00.179Z,8.07
2024-05-09T05:00:34.747Z,8.82
2024-05-09T05:03:07.603Z,9.30
2024-05-09T05:05:38.031Z,9.32
2024-05-09T05:08:05.506Z,8.35
2024-05-09T05:10:36.161Z,8.68
2024-05-09T05:13:21.383Z,9.50
2024-05-09T05:15:50.836Z,8.52
2024-05-09T05:18:17.859Z,8.88
2024-05-09T05:20:45.186Z,8.98
2024-05-09T05:23:14.148Z,9.40
2024-05-09T05:25:42.056Z,8.93
2024-05-09T05:28:09.103Z,8.75
2024-05-09T05:30:37.881Z,9.30
2024-05-09T05:33:06.329Z,8.95
2024-05-09T05:35:34.566Z,8.40
2024-05-09T05:38:01.821Z,7.22
2024-05-09T05:40:36.191Z,8.63
2024-05-09T05:43:06.239Z,8.88
2024-05-09T05:45:32.993Z,9.43
2024-05-09T05:48:00.440Z,7.85
2024-05-09T05:50:34.943Z,8.15
2024-05-09T05:53:06.464Z,7.95
2024-05-09T05:55:33.499Z,9.05
2024-05-09T05:58:01.809Z,9.88
2024-05-09T06:00:34.892Z,9.55
2024-05-09T06:03:05.650Z,9.07
2024-05-09T06:05:32.935Z,10.30
2024-05-09T06:07:59.869Z,10.25
2024-05-09T06:10:35.035Z,8.57
2024-05-09T06:13:05.866Z,9.57
2024-05-09T06:15:32.587Z,7.80
2024-05-09T06:17:59.567Z,8.82
2024-05-09T06:20:34.908Z,8.43
2024-05-09T06:23:04.786Z,8.20
2024-05-09T06:25:31.858Z,7.97
2024-05-09T06:28:00.333Z,9.73
2024-05-09T06:30:36.557Z,8.35
2024-05-09T06:33:07.697Z,8.50
2024-05-09T06:35:35.098Z,8.40
2024-05-09T06:38:02.167Z,8.48
2024-05-09T06:40:37.049Z,7.57
2024-05-09T06:43:11.319Z,7.47
2024-05-09T06:45:39.898Z,7.35
2024-05-09T06:48:09.242Z,7.75
2024-05-09T06:50:38.481Z,8.65
2024-05-09T06:53:08.497Z,8.15
2024-05-09T06:55:36.700Z,8.13
2024-05-09T06:58:06.206Z,7.97
2024-05-09T07:00:38.923Z,6.95
2024-05-09T07:03:11.397Z,7.35
2024-05-09T07:05:39.308Z,7.55
2024-05-09T07:08:06.827Z,8.60
2024-05-09T07:10:35.877Z,7.03
2024-05-09T07:13:03.541Z,7.45
2024-05-09T07:15:30.289Z,6.32
2024-05-09T07:17:57.393Z,7.28
2024-05-09T07:20:32.292Z,7.38
2024-05-09T07:23:02.828Z,7.93
2024-05-09T07:25:30.012Z,7.07
2024-05-09T07:27:56.965Z,7.18
2024-05-09T07:30:32.591Z,8.93
2024-05-09T07:33:02.288Z,7.00
2024-05-09T07:35:30.031Z,7.80
2024-05-09T07:37:57.095Z,6.50
2024-05-09T07:40:32.723Z,6.25
2024-05-09T07:43:05.122Z,7.18
2024-05-09T07:45:48.188Z,7.03
2024-05-09T07:56:07.932Z,6.72
2024-05-09T07:58:35.769Z,7.75
2024-05-09T08:01:02.824Z,6.63
2024-05-09T08:03:29.870Z,7.50
2024-05-09T08:05:56.917Z,9.07
2024-05-09T08:08:23.685Z,7.82
2024-05-09T08:10:51.062Z,7.13
2024-05-09T08:13:17.902Z,7.95
2024-05-09T08:15:44.962Z,8.00
2024-05-09T08:18:12.023Z,7.70
2024-05-09T08:20:39.872Z,6.85
2024-05-09T08:23:07.150Z,8.23
2024-05-09T08:25:33.960Z,8.38
2024-05-09T08:28:00.858Z,7.70
2024-05-09T08:30:33.704Z,7.70
2024-05-09T08:35:31.990Z,6.68
2024-05-09T08:37:59.129Z,8.02
2024-05-09T08:40:34.054Z,8.13
2024-05-09T08:43:07.935Z,7.47
2024-05-09T08:45:35.961Z,8.82
2024-05-09T08:48:07.122Z,8.43
2024-05-09T08:50:39.093Z,8.00
2024-05-09T08:53:08.192Z,8.50
2024-05-09T08:55:39.433Z,8.20
2024-05-09T08:58:12.749Z,8.32
2024-05-09T09:00:42.244Z,8.52
2024-05-09T09:05:39.004Z,8.65
2024-05-09T09:08:08.046Z,6.95
2024-05-09T09:10:35.590Z,8.50
2024-05-09T09:13:05.094Z,6.18
2024-05-09T09:15:33.042Z,6.68
2024-05-09T09:18:01.093Z,6.05
2024-05-09T09:20:35.940Z,6.45
2024-05-09T09:23:04.759Z,6.80
2024-05-09T09:25:31.925Z,9.20
2024-05-09T09:27:59.321Z,5.38
2024-05-09T09:30:35.236Z,4.47
2024-05-09T09:33:06.108Z,4.97
2024-05-09T09:35:33.907Z,4.28
2024-05-09T09:38:03.303Z,3.92
2024-05-09T09:43:10.059Z,2.97
2024-05-09T09:45:38.318Z,2.63
2024-05-09T09:48:05.948Z,3.63
2024-05-09T09:50:35.363Z,2.70
2024-05-09T09:53:04.972Z,4.13
2024-05-09T09:57:59.906Z,3.08
2024-05-09T10:00:32.935Z,3.67
2024-05-09T10:03:01.600Z,4.40
2024-05-09T10:05:29.903Z,3.75
2024-05-09T10:07:58.674Z,4.35
2024-05-09T10:10:31.660Z,4.10
2024-05-09T10:13:03.842Z,5.03
2024-05-09T10:15:45.570Z,5.65
2024-05-09T10:18:12.821Z,4.45
2024-05-09T10:20:42.650Z,5.85
2024-05-09T10:26:05.497Z,5.18
2024-05-09T10:28:35.492Z,5.30
2024-05-09T10:33:45.118Z,5.70
2024-05-09T10:36:13.783Z,5.40
2024-05-09T10:38:42.711Z,3.88
2024-05-09T10:41:09.643Z,4.20
2024-05-09T10:43:40.012Z,3.53
2024-05-09T10:46:07.692Z,3.53
2024-05-09T10:48:36.027Z,3.90
2024-05-09T10:51:04.014Z,4.95
2024-05-09T10:53:31.676Z,4.57
2024-05-09T10:56:00.766Z,3.75
2024-05-09T10:58:28.554Z,4.93
2024-05-09T11:00:56.340Z,5.10
2024-05-09T11:03:24.601Z,5.50
2024-05-09T11:05:52.684Z,6.18
2024-05-09T11:08:22.186Z,5.00
2024-05-09T11:10:54.116Z,4.50
2024-05-09T11:13:38.645Z,5.20
2024-05-09T11:16:16.306Z,4.95
2024-05-09T11:18:43.702Z,5.20
2024-05-09T11:21:13.422Z,6.43
2024-05-09T11:23:40.799Z,5.65
2024-05-09T11:26:07.791Z,5.53
2024-05-09T11:28:34.547Z,5.85
2024-05-09T11:31:07.903Z,5.68
2024-05-09T11:33:38.786Z,5.85
2024-05-09T11:36:07.118Z,5.97
2024-05-09T11:38:34.036Z,5.65
2024-05-09T11:41:01.654Z,6.43
2024-05-09T11:43:28.606Z,5.60
2024-05-09T11:45:57.212Z,5.50
2024-05-09T11:48:24.877Z,4.95
2024-05-09T11:50:51.826Z,4.90
2024-05-09T11:53:18.526Z,6.60
2024-05-09T11:55:45.298Z,4.25
2024-05-09T11:58:14.762Z,6.00
2024-05-09T12:00:41.664Z,6.03
2024-05-09T12:03:08.513Z,5.57
2024-05-09T12:05:35.338Z,6.68
2024-05-09T12:08:02.510Z,5.35
2024-05-09T12:10:33.755Z,6.07
2024-05-09T12:13:04.929Z,6.03
2024-05-09T12:15:33.255Z,5.35
2024-05-09T12:18:02.914Z,5.68
2024-05-09T12:20:37.504Z,7.00
2024-05-09T12:23:07.002Z,7.03
2024-05-09T12:25:33.933Z,5.78
2024-05-09T12:28:01.269Z,5.82
2024-05-09T12:30:35.682Z,5.50
2024-05-09T12:33:07.585Z,5.47
2024-05-09T12:35:34.673Z,5.70
2024-05-09T12:38:01.447Z,5.80
2024-05-09T12:40:35.572Z,5.95
2024-05-09T12:43:08.316Z,5.40
2024-05-09T12:45:36.202Z,5.03
2024-05-09T12:48:04.628Z,5.53
2024-05-09T12:50:33.663Z,5.88
2024-05-09T12:53:02.780Z,4.40
2024-05-09T12:55:36.610Z,6.15
2024-05-09T12:58:09.099Z,4.78
2024-05-09T13:00:36.272Z,5.15
2024-05-09T13:03:03.463Z,4.70
2024-05-09T13:05:30.597Z,4.80
2024-05-09T13:07:57.582Z,4.15
2024-05-09T13:10:31.597Z,5.35
2024-05-09T13:13:01.510Z,4.68
2024-05-09T13:15:30.179Z,3.83
2024-05-09T13:18:01.862Z,3.65
2024-05-09T13:20:33.761Z,3.20
2024-05-09T13:23:05.511Z,3.92
2024-05-09T13:25:34.810Z,4.53
2024-05-09T13:28:02.130Z,3.85
2024-05-09T13:30:37.717Z,3.65
2024-05-09T13:33:08.278Z,3.13
2024-05-09T13:35:36.035Z,4.32
2024-05-09T13:38:03.225Z,3.67
2024-05-09T13:40:34.376Z,4.50
2024-05-09T13:43:05.084Z,5.20
2024-05-09T13:47:59.776Z,5.35
2024-05-09T13:50:33.657Z,4.15
2024-05-09T13:53:05.620Z,4.00
2024-05-09T13:55:33.478Z,4.43
2024-05-09T13:58:00.651Z,4.00
2024-05-09T14:00:40.646Z,3.22
2024-05-09T14:03:12.118Z,4.00
2024-05-09T14:05:39.051Z,4.43
2024-05-09T14:08:06.178Z,4.13
2024-05-09T14:10:33.121Z,4.40
2024-05-09T14:13:01.164Z,3.88
2024-05-09T14:15:28.173Z,2.95
2024-05-09T14:17:55.489Z,2.80
2024-05-09T14:20:30.512Z,4.32
2024-05-09T14:23:00.368Z,3.67
2024-05-09T14:25:28.670Z,3.45
2024-05-09T14:27:57.572Z,4.38
2024-05-09T14:30:31.047Z,4.32
2024-05-09T14:33:04.350Z,3.33
2024-05-09T14:35:31.374Z,3.65
2024-05-09T14:37:58.276Z,4.50
2024-05-09T14:40:36.588Z,3.72
2024-05-09T14:43:08.755Z,4.15
2024-05-09T14:45:35.846Z,5.03
2024-05-09T14:48:03.709Z,4.32
2024-05-09T14:50:36.189Z,4.05
2024-05-09T14:53:07.094Z,3.42
2024-05-09T14:55:37.480Z,4.55
2024-05-09T14:58:07.233Z,3.85
2024-05-09T15:03:05.572Z,3.90
2024-05-09T15:05:32.412Z,4.57
2024-05-09T15:07:59.499Z,3.88
2024-05-09T15:10:34.084Z,4.13
2024-05-09T15:13:04.285Z,4.00
2024-05-09T15:15:31.326Z,3.60
2024-05-09T15:17:58.452Z,4.20
2024-05-09T15:20:33.056Z,4.45
2024-05-09T15:23:03.065Z,6.03
2024-05-09T15:25:30.069Z,5.78
2024-05-09T15:27:57.216Z,5.43
2024-05-09T15:30:30.321Z,5.20
2024-05-09T15:32:59.805Z,6.47
2024-05-09T15:35:26.730Z,6.45
2024-05-09T15:37:53.513Z,5.97
2024-05-09T15:40:30.459Z,5.78
2024-05-09T15:43:04.784Z,6.07
2024-05-09T15:45:32.149Z,6.32
2024-05-09T15:47:59.634Z,6.80
2024-05-09T15:50:36.186Z,6.22
2024-05-09T15:53:07.730Z,6.18
2024-05-09T15:55:35.521Z,5.82
2024-05-09T15:58:03.607Z,6.47
2024-05-09T16:00:38.332Z,6.38
2024-05-09T16:03:10.668Z,6.68
2024-05-09T16:05:38.315Z,6.68
2024-05-09T16:08:06.173Z,6.25
2024-05-09T16:10:34.609Z,5.90
2024-05-09T16:13:03.220Z,5.57
2024-05-09T16:15:30.902Z,6.10
2024-05-09T16:17:58.015Z,5.88
2024-05-09T16:20:34.442Z,5.53
2024-05-09T16:23:06.668Z,5.10
2024-05-09T16:25:33.561Z,6.03
2024-05-09T16:28:00.697Z,6.25
2024-05-09T16:30:34.087Z,5.13
2024-05-09T16:33:04.320Z,5.50
2024-05-09T16:37:58.833Z,5.13
2024-05-09T16:40:34.442Z,6.00
2024-05-09T16:43:06.291Z,6.50
2024-05-09T16:45:33.637Z,5.25
2024-05-09T16:48:01.610Z,4.45
2024-05-09T16:50:33.005Z,4.53
2024-05-09T16:53:02.468Z,5.13
2024-05-09T16:55:29.291Z,4.38
2024-05-09T16:57:57.292Z,4.85
2024-05-09T17:00:35.425Z,4.78
2024-05-09T17:03:08.917Z,4.53
2024-05-09T17:05:36.500Z,4.90
2024-05-09T17:08:03.966Z,4.43
2024-05-09T17:10:33.769Z,4.93
2024-05-09T17:13:03.350Z,5.10
2024-05-09T17:15:31.872Z,4.32
2024-05-09T17:17:58.929Z,5.15
2024-05-09T17:20:32.672Z,4.50
2024-05-09T17:23:03.494Z,3.83
2024-05-09T17:25:30.317Z,4.20
2024-05-09T17:27:59.607Z,4.43
2024-05-09T17:33:06.738Z,4.00
2024-05-09T17:35:33.832Z,3.22
2024-05-09T17:38:01.786Z,3.70
2024-05-09T17:40:33.651Z,4.40
2024-05-09T17:43:03.911Z,3.60
2024-05-09T17:45:31.926Z,5.10
2024-05-09T17:47:59.661Z,3.85
2024-05-09T17:50:33.444Z,4.40
2024-05-09T17:53:03.015Z,4.40
2024-05-09T17:55:30.359Z,4.95
2024-05-09T17:57:57.486Z,5.35
2024-05-09T18:00:33.723Z,5.10
2024-05-09T18:03:06.345Z,5.05
2024-05-09T18:05:34.968Z,6.25
2024-05-09T18:08:02.036Z,5.72
2024-05-09T18:10:35.449Z,7.07
2024-05-09T18:13:06.094Z,5.93
2024-05-09T18:15:33.353Z,6.30
2024-05-09T18:18:00.911Z,5.82
2024-05-09T18:20:37.889Z,5.93
2024-05-09T18:25:36.825Z,7.30
2024-05-09T18:28:03.980Z,6.07
2024-05-09T18:30:34.558Z,6.07
2024-05-09T18:33:03.684Z,6.78
2024-05-09T18:35:30.950Z,6.00
2024-05-09T18:37:57.816Z,6.70
2024-05-09T18:40:32.722Z,6.10
2024-05-09T18:43:04.656Z,7.35
2024-05-09T18:45:32.403Z,5.00
2024-05-09T18:48:00.267Z,5.70
2024-05-09T18:50:34.657Z,4.95
2024-05-09T18:53:06.603Z,3.80
2024-05-09T18:55:33.610Z,4.22
2024-05-09T18:58:00.660Z,4.88
2024-05-09T19:00:34.450Z,4.82
2024-05-09T19:03:06.394Z,4.43
2024-05-09T19:05:36.052Z,3.83
2024-05-09T19:08:03.625Z,5.25
2024-05-09T19:10:34.385Z,4.20
2024-05-09T19:13:08.169Z,4.32
2024-05-09T19:15:38.590Z,4.18
2024-05-09T19:18:06.401Z,4.55
2024-05-09T19:20:35.093Z,5.45
2024-05-09T19:23:03.387Z,4.57
2024-05-09T19:25:30.471Z,4.68
2024-05-09T19:27:57.511Z,4.38
2024-05-09T19:30:33.020Z,4.88
2024-05-09T19:33:06.206Z,4.35
2024-05-09T19:35:33.064Z,4.57
2024-05-09T19:38:00.154Z,4.15
2024-05-09T19:40:31.535Z,3.75
2024-05-09T19:43:02.665Z,4.20
2024-05-09T19:45:30.294Z,4.70
2024-05-09T19:47:57.268Z,4.53
2024-05-09T19:50:32.383Z,4.40
2024-05-09T19:53:07.177Z,5.03
2024-05-09T19:55:34.170Z,4.72
2024-05-09T19:58:05.132Z,5.03
2024-05-09T20:00:36.697Z,4.20
2024-05-09T20:03:06.010Z,4.82
2024-05-09T20:05:33.498Z,5.28
2024-05-09T20:08:00.669Z,5.40
2024-05-09T20:10:32.152Z,4.75
2024-05-09T20:13:01.435Z,4.53
2024-05-09T20:15:28.157Z,4.97
2024-05-09T20:17:55.281Z,5.50
2024-05-09T20:22:51.984Z,5.65
2024-05-09T20:25:18.917Z,5.18
2024-05-09T20:27:45.851Z,5.57
2024-05-09T20:30:17.260Z,5.20
2024-05-09T20:32:51.577Z,4.80
2024-05-09T20:35:18.487Z,4.75
2024-05-09T20:37:45.192Z,4.65
2024-05-09T20:40:18.498Z,4.72
2024-05-09T20:42:52.061Z,4.32
2024-05-09T20:45:18.752Z,5.05
2024-05-09T20:47:45.470Z,5.32
2024-05-09T20:50:23.040Z,5.68
2024-05-09T20:52:55.415Z,6.18
2024-05-09T20:55:22.142Z,6.03
2024-05-09T20:57:49.011Z,6.78
2024-05-09T21:00:19.176Z,6.38
2024-05-09T21:02:52.071Z,5.72
2024-05-09T21:05:19.581Z,5.85
2024-05-09T21:07:46.431Z,5.93
2024-05-09T21:10:19.386Z,5.18
2024-05-09T21:15:16.280Z,4.15
2024-05-09T21:17:43.141Z,4.57
2024-05-09T21:20:17.018Z,4.53
2024-05-09T21:22:47.259Z,5.45
2024-05-09T21:25:14.429Z,4.45
2024-05-09T21:27:41.270Z,3.92
2024-05-09T21:30:13.244Z,4.03
2024-05-09T21:32:45.597Z,4.07
2024-05-09T21:35:12.778Z,4.18
2024-05-09T21:37:39.464Z,3.83
2024-05-09T21:40:09.531Z,4.75
2024-05-09T21:42:40.355Z,4.60
2024-05-09T21:45:07.369Z,4.82
2024-05-09T21:47:34.962Z,4.57
2024-05-09T21:50:01.780Z,4.28
2024-05-09T21:52:28.644Z,5.22
2024-05-09T21:54:55.539Z,4.28
2024-05-09T21:57:22.403Z,5.07
2024-05-09T21:59:49.117Z,4.53
2024-05-09T22:02:16.123Z,4.50
2024-05-09T22:04:43.093Z,5.47
2024-05-09T22:07:10.109Z,5.60
2024-05-09T22:09:37.027Z,4.53
2024-05-09T22:12:04.810Z,4.85
2024-05-09T22:14:31.676Z,4.75
2024-05-09T22:16:58.356Z,4.85
2024-05-09T22:19:25.100Z,5.00
2024-05-09T22:21:51.838Z,4.80
2024-05-09T22:24:18.665Z,5.15
2024-05-09T22:26:45.759Z,4.93
2024-05-09T22:29:13.031Z,4.90
2024-05-09T22:31:39.703Z,6.10
2024-05-09T22:34:06.556Z,5.85
2024-05-09T22:36:33.590Z,5.50
2024-05-09T22:39:00.390Z,5.40
2024-05-09T22:41:27.804Z,5.07
2024-05-09T22:43:54.876Z,4.50
2024-05-09T22:46:22.147Z,6.35
2024-05-09T22:48:49.050Z,7.22
2024-05-09T22:51:16.126Z,4.97
2024-05-09T22:53:43.358Z,5.90
2024-05-09T22:56:14.382Z,5.03
2024-05-09T22:58:41.803Z,5.88
2024-05-09T23:01:15.712Z,4.82
2024-05-09T23:03:43.303Z,5.57
2024-05-09T23:06:10.148Z,5.22
2024-05-09T23:08:36.830Z,5.40
2024-05-09T23:11:03.998Z,5.13
2024-05-09T23:13:30.703Z,5.30
2024-05-09T23:15:58.037Z,5.25
2024-05-09T23:18:24.848Z,6.13
2024-05-09T23:20:51.992Z,5.47
2024-05-09T23:23:18.759Z,6.00
2024-05-09T23:25:45.552Z,5.95
2024-05-09T23:28:12.688Z,5.65
2024-05-09T23:30:41.067Z,6.00
2024-05-09T23:33:11.005Z,7.28
2024-05-09T23:35:38.731Z,6.05
2024-05-09T23:38:05.576Z,7.13
2024-05-09T23:43:02.629Z,6.05
2024-05-09T23:45:29.323Z,6.25
2024-05-09T23:47:56.262Z,6.57
2024-05-09T23:50:30.274Z,7.57
2024-05-09T23:53:00.682Z,7.15
2024-05-09T23:55:28.301Z,7.72
2024-05-09T23:57:55.192Z,7.75
